Cooper City, FL (33330)

5:33 PM EDT on October 31, 2014 (GMT -0400)
Pembroke Falls | Change Station
CLOSE
Current Station
Personal Weather Station
Location: Pembroke Pines, FL
Elevation: 7 ft
Nearby Weather Stations

Elev 7 ft 26.03 °N, 80.34 °W | Updated 11 seconds ago

Clear
Clear
83.1 °F
Feels Like 83 °F
N
2.7
Wind Variable Wind from West
Gusts 2.7 mph

Today
High -- | Low -- °F
--% Chance of Precip.
Yesterday
High -- | Low -- °F
Precip. -- in
7:29 AM 6:40 PM
First Quarter, 59% visible
Pressure 29.78 in
Visibility 10.0 miles
Clouds Few 4700 ft
Heat Index 83 °F
Dew Point 61 °F
Humidity 47%
Rainfall 0.00 in
Snow Depth Not available.
UV 2 out of 12
Pollen 3.10 out of 12
Air Quality Not available.
Flu Activity Not available.
METAR KOPF 312053Z 28012KT 10SM FEW047 29/18 A2977 RMK AO2 SLP083 T02890183 55010

More Conditions Fewer Conditions

Pressure 29.78 in
Visibility 10.0 miles
Clouds Few 4700 ft
Heat Index 83 °F
Dew Point 61 °F
Humidity 47%
Rainfall 0.00 in
Snow Depth Not available.
UV 2 out of 12
Pollen 3.10 out of 12
Air Quality Not available.
Flu Activity Not available.
METAR KOPF 312053Z 28012KT 10SM FEW047 29/18 A2977 RMK AO2 SLP083 T02890183 55010

More Conditions Fewer Conditions

10-Day Weather Forecast

Almanac

Astronomy

Oct. 31, 2014 Rise Set
Actual Time
Civil Twilight
Nautical Twilight
Astronomical Twilight
Moon
Length of Visible Light
Length of Day
Tomorrow will be .
, % of the Moon is Illuminated

Today's Extremes

State Highs State Lows

Community

WunderPhotos

Upload Photos

1,766,738 photos uploaded!

WunderBlogs® & News

Nearby

Air Quality

  Air Quality AQ Index Pollutant
Not available.

Snow Depth

Station Depth Elevation

Earthquake Activity

City Distance Mag. Time & Date
Minimum magnitude displayed is 2.5.

Coastal Water Temperatures

Place Temperature

Nearby Weather Stations